Terminal Aerodrome Forecast
Issued by NWS

Home | Current Version | Previous Version | Text Only | Print | Product List | Glossary On
Versions: 1 2 3 4 5 6 7 8 9 10 11 12 13 14 15 16 17 18 19 20 21 22 23 24 25 26 27 28 29 30 31 32 33 34 35 36 37 38 39 40 41 42
000
FTUS46 KOTX 220527
TAFCOE
TAF
KCOE 220527Z 2206/2306 15005KT P6SM SCT040 SCT150
     FM221500 11010KT P6SM SCT050 BKN080 OVC100
     FM222200 17008KT P6SM BKN040 OVC060
     FM230500 15010KT P6SM -RA SCT030 BKN040 OVC060
      AMD LTD TO CLD AND VIS=

USA.gov is the U.S. government's official web portal to all federal, state and local government web resources and services.